sensor_id;sensor_type;location;lat;lon;timestamp;pressure;altitude;pressure_sealevel;temperature;humidity
65329;BME280;51941;52.210;5.158;2024-02-15T00:01:51;101596.09;;;11.41;84.40
65329;BME280;51941;52.210;5.158;2024-02-15T00:04:19;101599.25;;;11.43;84.28
65329;BME280;51941;52.210;5.158;2024-02-15T00:06:46;101593.47;;;11.45;84.27
65329;BME280;51941;52.210;5.158;2024-02-15T00:09:14;101599.19;;;11.40;84.25
65329;BME280;51941;52.210;5.158;2024-02-15T00:11:40;101601.56;;;11.45;84.53
65329;BME280;51941;52.210;5.158;2024-02-15T00:14:07;101597.31;;;11.44;84.31
65329;BME280;51941;52.210;5.158;2024-02-15T00:16:34;101601.56;;;11.45;84.25
65329;BME280;51941;52.210;5.158;2024-02-15T00:19:01;101591.16;;;11.43;84.33
65329;BME280;51941;52.210;5.158;2024-02-15T00:21:29;101595.31;;;11.41;84.50
65329;BME280;51941;52.210;5.158;2024-02-15T00:23:56;101593.84;;;11.43;84.17
65329;BME280;51941;52.210;5.158;2024-02-15T00:26:26;101594.97;;;11.42;84.61
65329;BME280;51941;52.210;5.158;2024-02-15T00:28:53;101598.44;;;11.43;84.35
65329;BME280;51941;52.210;5.158;2024-02-15T00:31:19;101598.38;;;11.39;84.58
65329;BME280;51941;52.210;5.158;2024-02-15T00:33:46;101589.50;;;11.39;84.42
65329;BME280;51941;52.210;5.158;2024-02-15T00:36:13;101595.69;;;11.39;84.69
65329;BME280;51941;52.210;5.158;2024-02-15T00:38:41;101594.56;;;11.40;84.59
65329;BME280;51941;52.210;5.158;2024-02-15T00:41:09;101587.59;;;11.39;84.40
65329;BME280;51941;52.210;5.158;2024-02-15T00:43:36;101591.00;;;11.36;84.77
65329;BME280;51941;52.210;5.158;2024-02-15T00:46:03;101581.34;;;11.35;84.88
65329;BME280;51941;52.210;5.158;2024-02-15T00:48:30;101576.03;;;11.39;84.49
65329;BME280;51941;52.210;5.158;2024-02-15T00:50:57;101576.03;;;11.39;84.69
65329;BME280;51941;52.210;5.158;2024-02-15T00:53:24;101574.84;;;11.36;84.73
65329;BME280;51941;52.210;5.158;2024-02-15T00:55:52;101584.47;;;11.37;84.69
65329;BME280;51941;52.210;5.158;2024-02-15T00:58:19;101572.97;;;11.40;84.64
65329;BME280;51941;52.210;5.158;2024-02-15T01:00:47;101575.66;;;11.40;84.63
65329;BME280;51941;52.210;5.158;2024-02-15T01:03:15;101569.44;;;11.36;84.85
65329;BME280;51941;52.210;5.158;2024-02-15T01:05:42;101570.69;;;11.42;84.43
65329;BME280;51941;52.210;5.158;2024-02-15T01:08:08;101566.81;;;11.40;84.60
65329;BME280;51941;52.210;5.158;2024-02-15T01:10:35;101570.63;;;11.39;84.66
65329;BME280;51941;52.210;5.158;2024-02-15T01:13:04;101578.72;;;11.39;84.43
65329;BME280;51941;52.210;5.158;2024-02-15T01:15:30;101562.53;;;11.39;84.75
65329;BME280;51941;52.210;5.158;2024-02-15T01:17:57;101562.53;;;11.39;84.30
65329;BME280;51941;52.210;5.158;2024-02-15T01:20:24;101559.41;;;11.37;84.55
65329;BME280;51941;52.210;5.158;2024-02-15T01:22:51;101553.59;;;11.35;84.69
65329;BME280;51941;52.210;5.158;2024-02-15T01:25:17;101566.25;;;11.31;84.91
65329;BME280;51941;52.210;5.158;2024-02-15T01:27:44;101566.31;;;11.34;84.95
65329;BME280;51941;52.210;5.158;2024-02-15T01:30:13;101562.47;;;11.35;84.76
65329;BME280;51941;52.210;5.158;2024-02-15T01:32:39;101565.59;;;11.37;84.47
65329;BME280;51941;52.210;5.158;2024-02-15T01:35:07;101565.53;;;11.34;84.78
65329;BME280;51941;52.210;5.158;2024-02-15T01:37:35;101561.75;;;11.38;84.51
65329;BME280;51941;52.210;5.158;2024-02-15T01:40:03;101560.56;;;11.36;84.69
65329;BME280;51941;52.210;5.158;2024-02-15T01:42:31;101562.13;;;11.37;84.81
65329;BME280;51941;52.210;5.158;2024-02-15T01:44:58;101560.56;;;11.36;84.73
65329;BME280;51941;52.210;5.158;2024-02-15T01:47:27;101553.69;;;11.38;84.68
65329;BME280;51941;52.210;5.158;2024-02-15T01:49:54;101549.47;;;11.41;84.58
65329;BME280;51941;52.210;5.158;2024-02-15T01:52:22;101553.25;;;11.36;84.80
65329;BME280;51941;52.210;5.158;2024-02-15T01:54:51;101540.69;;;11.44;84.47
65329;BME280;51941;52.210;5.158;2024-02-15T01:57:19;101526.63;;;11.35;84.82
65329;BME280;51941;52.210;5.158;2024-02-15T01:59:47;101529.41;;;11.38;84.75
65329;BME280;51941;52.210;5.158;2024-02-15T02:02:18;101539.84;;;11.40;84.41
65329;BME280;51941;52.210;5.158;2024-02-15T02:04:48;101527.41;;;11.35;84.60
65329;BME280;51941;52.210;5.158;2024-02-15T02:07:15;101524.34;;;11.37;84.56
65329;BME280;51941;52.210;5.158;2024-02-15T02:09:41;101532.38;;;11.33;84.75
65329;BME280;51941;52.210;5.158;2024-02-15T02:12:11;101538.91;;;11.32;84.65
65329;BME280;51941;52.210;5.158;2024-02-15T02:14:37;101534.66;;;11.31;84.88
65329;BME280;51941;52.210;5.158;2024-02-15T02:17:12;101535.00;;;11.29;84.74
65329;BME280;51941;52.210;5.158;2024-02-15T02:19:39;101531.84;;;11.24;85.03
65329;BME280;51941;52.210;5.158;2024-02-15T02:22:08;101515.72;;;11.27;84.52
65329;BME280;51941;52.210;5.158;2024-02-15T02:24:42;101523.44;;;11.29;84.62
65329;BME280;51941;52.210;5.158;2024-02-15T02:27:13;101520.56;;;11.18;85.33
65329;BME280;51941;52.210;5.158;2024-02-15T02:29:42;101524.94;;;11.26;84.88
65329;BME280;51941;52.210;5.158;2024-02-15T02:32:11;101518.78;;;11.26;85.10
65329;BME280;51941;52.210;5.158;2024-02-15T02:34:37;101519.97;;;11.28;84.51
65329;BME280;51941;52.210;5.158;2024-02-15T02:37:06;101514.16;;;11.26;84.91
65329;BME280;51941;52.210;5.158;2024-02-15T02:39:34;101520.75;;;11.29;84.61
65329;BME280;51941;52.210;5.158;2024-02-15T02:42:01;101524.59;;;11.28;84.90
65329;BME280;51941;52.210;5.158;2024-02-15T02:44:29;101521.16;;;11.31;84.78
65329;BME280;51941;52.210;5.158;2024-02-15T02:46:56;101516.50;;;11.28;84.97
65329;BME280;51941;52.210;5.158;2024-02-15T02:49:22;101517.28;;;11.28;85.19
65329;BME280;51941;52.210;5.158;2024-02-15T02:51:49;101514.16;;;11.26;85.26
65329;BME280;51941;52.210;5.158;2024-02-15T02:54:16;101514.50;;;11.25;85.08
65329;BME280;51941;52.210;5.158;2024-02-15T02:56:42;101512.66;;;11.29;85.08
65329;BME280;51941;52.210;5.158;2024-02-15T02:59:10;101512.59;;;11.25;85.28
65329;BME280;51941;52.210;5.158;2024-02-15T03:01:39;101512.66;;;11.29;85.08
65329;BME280;51941;52.210;5.158;2024-02-15T03:04:06;101502.66;;;11.29;84.98
65329;BME280;51941;52.210;5.158;2024-02-15T03:06:33;101506.91;;;11.31;84.77
65329;BME280;51941;52.210;5.158;2024-02-15T03:08:59;101498.91;;;11.15;85.70
65329;BME280;51941;52.210;5.158;2024-02-15T03:11:26;101493.66;;;11.22;85.47
65329;BME280;51941;52.210;5.158;2024-02-15T03:13:53;101503.31;;;11.23;85.38
65329;BME280;51941;52.210;5.158;2024-02-15T03:16:21;101495.22;;;11.23;85.39
65329;BME280;51941;52.210;5.158;2024-02-15T03:18:51;101511.31;;;11.19;85.43
65329;BME280;51941;52.210;5.158;2024-02-15T03:21:18;101503.97;;;11.16;85.54
65329;BME280;51941;52.210;5.158;2024-02-15T03:23:45;101510.81;;;11.14;85.53
65329;BME280;51941;52.210;5.158;2024-02-15T03:26:12;101509.28;;;11.13;85.77
65329;BME280;51941;52.210;5.158;2024-02-15T03:28:39;101510.56;;;11.19;85.55
65329;BME280;51941;52.210;5.158;2024-02-15T03:31:06;101506.34;;;11.21;85.25
65329;BME280;51941;52.210;5.158;2024-02-15T03:33:32;101505.56;;;11.21;85.26
65329;BME280;51941;52.210;5.158;2024-02-15T03:36:02;101519.13;;;11.24;85.25
65329;BME280;51941;52.210;5.158;2024-02-15T03:38:28;101513.25;;;11.19;85.27
65329;BME280;51941;52.210;5.158;2024-02-15T03:40:56;101513.38;;;11.26;85.28
65329;BME280;51941;52.210;5.158;2024-02-15T03:43:23;101510.63;;;11.22;85.27
65329;BME280;51941;52.210;5.158;2024-02-15T03:45:50;101511.47;;;11.26;85.19
65329;BME280;51941;52.210;5.158;2024-02-15T03:48:17;101509.84;;;11.22;85.20
65329;BME280;51941;52.210;5.158;2024-02-15T03:50:44;101502.19;;;11.24;85.18
65329;BME280;51941;52.210;5.158;2024-02-15T03:53:12;101504.03;;;11.20;85.00
65329;BME280;51941;52.210;5.158;2024-02-15T03:55:39;101509.13;;;11.25;85.23
65329;BME280;51941;52.210;5.158;2024-02-15T03:58:06;101503.38;;;11.26;84.99
65329;BME280;51941;52.210;5.158;2024-02-15T04:00:34;101492.59;;;11.26;84.94
65329;BME280;51941;52.210;5.158;2024-02-15T04:03:01;101496.91;;;11.31;84.97
65329;BME280;51941;52.210;5.158;2024-02-15T04:05:27;101505.41;;;11.33;85.19
65329;BME280;51941;52.210;5.158;2024-02-15T04:07:54;101491.16;;;11.33;84.88
65329;BME280;51941;52.210;5.158;2024-02-15T04:10:22;101498.88;;;11.34;84.76
65329;BME280;51941;52.210;5.158;2024-02-15T04:12:49;101496.19;;;11.34;84.91
65329;BME280;51941;52.210;5.158;2024-02-15T04:15:16;101494.56;;;11.29;84.82
65329;BME280;51941;52.210;5.158;2024-02-15T04:17:43;101490.78;;;11.34;84.87
65329;BME280;51941;52.210;5.158;2024-02-15T04:20:10;101489.88;;;11.26;84.92
65329;BME280;51941;52.210;5.158;2024-02-15T04:22:39;101492.31;;;11.32;84.92
65329;BME280;51941;52.210;5.158;2024-02-15T04:25:08;101489.59;;;11.32;84.84
65329;BME280;51941;52.210;5.158;2024-02-15T04:27:37;101487.34;;;11.34;85.14
65329;BME280;51941;52.210;5.158;2024-02-15T04:30:05;101486.00;;;11.24;85.30
65329;BME280;51941;52.210;5.158;2024-02-15T04:32:32;101491.91;;;11.33;85.04
65329;BME280;51941;52.210;5.158;2024-02-15T04:35:00;101474.00;;;11.21;85.42
65329;BME280;51941;52.210;5.158;2024-02-15T04:37:27;101478.03;;;11.31;85.18
65329;BME280;51941;52.210;5.158;2024-02-15T04:39:57;101479.16;;;11.30;84.96
65329;BME280;51941;52.210;5.158;2024-02-15T04:42:24;101471.84;;;11.31;85.00
65329;BME280;51941;52.210;5.158;2024-02-15T04:44:53;101470.34;;;11.33;85.11
65329;BME280;51941;52.210;5.158;2024-02-15T04:47:20;101473.47;;;11.35;84.96
65329;BME280;51941;52.210;5.158;2024-02-15T04:49:47;101480.06;;;11.38;84.95
65329;BME280;51941;52.210;5.158;2024-02-15T04:52:14;101474.41;;;11.23;85.56
65329;BME280;51941;52.210;5.158;2024-02-15T04:54:43;101464.03;;;11.25;85.46
65329;BME280;51941;52.210;5.158;2024-02-15T04:57:10;101469.16;;;11.31;85.36
65329;BME280;51941;52.210;5.158;2024-02-15T04:59:37;101469.50;;;11.29;85.30
65329;BME280;51941;52.210;5.158;2024-02-15T05:02:05;101474.13;;;11.28;85.58
65329;BME280;51941;52.210;5.158;2024-02-15T05:04:33;101471.84;;;11.31;85.46
65329;BME280;51941;52.210;5.158;2024-02-15T05:07:01;101476.41;;;11.26;85.54
65329;BME280;51941;52.210;5.158;2024-02-15T05:09:29;101482.63;;;11.31;85.49
65329;BME280;51941;52.210;5.158;2024-02-15T05:11:56;101483.06;;;11.33;85.49
65329;BME280;51941;52.210;5.158;2024-02-15T05:14:23;101478.84;;;11.35;85.18
65329;BME280;51941;52.210;5.158;2024-02-15T05:16:50;101478.38;;;11.29;85.74
65329;BME280;51941;52.210;5.158;2024-02-15T05:19:18;101476.91;;;11.32;85.40
65329;BME280;51941;52.210;5.158;2024-02-15T05:21:46;101477.66;;;11.33;85.20
65329;BME280;51941;52.210;5.158;2024-02-15T05:24:13;101473.78;;;11.30;85.74
65329;BME280;51941;52.210;5.158;2024-02-15T05:26:40;101452.19;;;11.30;85.74
65329;BME280;51941;52.210;5.158;2024-02-15T05:29:09;101439.50;;;11.31;85.62
65329;BME280;51941;52.210;5.158;2024-02-15T05:31:36;101429.13;;;11.33;85.62
65329;BME280;51941;52.210;5.158;2024-02-15T05:34:06;101411.34;;;11.28;85.76
65329;BME280;51941;52.210;5.158;2024-02-15T05:36:38;101409.06;;;11.30;85.79
65329;BME280;51941;52.210;5.158;2024-02-15T05:39:05;101401.38;;;11.32;85.41
65329;BME280;51941;52.210;5.158;2024-02-15T05:41:32;101407.47;;;11.29;85.89
65329;BME280;51941;52.210;5.158;2024-02-15T05:43:59;101405.94;;;11.28;86.02
65329;BME280;51941;52.210;5.158;2024-02-15T05:46:26;101417.91;;;11.31;86.00
65329;BME280;51941;52.210;5.158;2024-02-15T05:48:54;101419.91;;;11.34;85.73
65329;BME280;51941;52.210;5.158;2024-02-15T05:51:22;101419.09;;;11.33;85.90
65329;BME280;51941;52.210;5.158;2024-02-15T05:53:50;101413.00;;;11.36;85.53
65329;BME280;51941;52.210;5.158;2024-02-15T05:56:20;101413.63;;;11.26;86.15
65329;BME280;51941;52.210;5.158;2024-02-15T05:58:46;101416.81;;;11.35;85.77
65329;BME280;51941;52.210;5.158;2024-02-15T06:01:13;101410.59;;;11.31;86.13
65329;BME280;51941;52.210;5.158;2024-02-15T06:03:41;101415.94;;;11.27;86.22
65329;BME280;51941;52.210;5.158;2024-02-15T06:06:09;101420.25;;;11.32;86.27
65329;BME280;51941;52.210;5.158;2024-02-15T06:08:37;101413.00;;;11.36;85.83
65329;BME280;51941;52.210;5.158;2024-02-15T06:11:05;101420.31;;;11.36;85.93
65329;BME280;51941;52.210;5.158;2024-02-15T06:13:32;101426.69;;;11.24;86.50
65329;BME280;51941;52.210;5.158;2024-02-15T06:16:00;101429.13;;;11.33;86.20
65329;BME280;51941;52.210;5.158;2024-02-15T06:18:28;101426.41;;;11.33;86.47
65329;BME280;51941;52.210;5.158;2024-02-15T06:20:55;101430.69;;;11.34;86.19
65329;BME280;51941;52.210;5.158;2024-02-15T06:23:23;101428.41;;;11.36;86.18
65329;BME280;51941;52.210;5.158;2024-02-15T06:25:52;101419.50;;;11.32;86.55
65329;BME280;51941;52.210;5.158;2024-02-15T06:28:21;101415.50;;;11.25;86.75
65329;BME280;51941;52.210;5.158;2024-02-15T06:31:01;101409.13;;;11.34;86.38
65329;BME280;51941;52.210;5.158;2024-02-15T06:33:45;101411.69;;;11.26;86.73
65329;BME280;51941;52.210;5.158;2024-02-15T06:36:30;101419.03;;;11.29;86.66
65329;BME280;51941;52.210;5.158;2024-02-15T06:39:14;101420.31;;;11.36;86.13
65329;BME280;51941;52.210;5.158;2024-02-15T06:41:58;101406.84;;;11.36;86.23
65329;BME280;51941;52.210;5.158;2024-02-15T06:44:26;101388.72;;;11.36;85.93
65329;BME280;51941;52.210;5.158;2024-02-15T06:46:53;101396.34;;;11.31;86.39
65329;BME280;51941;52.210;5.158;2024-02-15T06:49:20;101404.13;;;11.36;85.76
65329;BME280;51941;52.210;5.158;2024-02-15T06:51:47;101407.13;;;11.31;86.34
65329;BME280;51941;52.210;5.158;2024-02-15T06:54:15;101404.50;;;11.34;86.18
65329;BME280;51941;52.210;5.158;2024-02-15T06:56:43;101407.19;;;11.34;86.19
65329;BME280;51941;52.210;5.158;2024-02-15T06:59:12;101411.50;;;11.39;86.12
65329;BME280;51941;52.210;5.158;2024-02-15T07:01:42;101417.66;;;11.39;85.91
65329;BME280;51941;52.210;5.158;2024-02-15T07:04:09;101418.47;;;11.40;86.07
65329;BME280;51941;52.210;5.158;2024-02-15T07:06:37;101426.56;;;11.40;86.12
65329;BME280;51941;52.210;5.158;2024-02-15T07:09:04;101428.00;;;11.34;86.18
65329;BME280;51941;52.210;5.158;2024-02-15T07:11:32;101414.94;;;11.36;86.28
65329;BME280;51941;52.210;5.158;2024-02-15T07:14:00;101418.03;;;11.38;86.37
65329;BME280;51941;52.210;5.158;2024-02-15T07:16:27;101424.22;;;11.38;86.37
65329;BME280;51941;52.210;5.158;2024-02-15T07:18:56;101424.56;;;11.37;86.37
65329;BME280;51941;52.210;5.158;2024-02-15T07:21:22;101431.88;;;11.36;86.57
65329;BME280;51941;52.210;5.158;2024-02-15T07:23:52;101445.06;;;11.41;86.38
65329;BME280;51941;52.210;5.158;2024-02-15T07:26:19;101448.97;;;11.44;86.37
65329;BME280;51941;52.210;5.158;2024-02-15T07:28:50;101446.97;;;11.41;86.54
65329;BME280;51941;52.210;5.158;2024-02-15T07:31:18;101446.97;;;11.41;86.78
65329;BME280;51941;52.210;5.158;2024-02-15T07:33:46;101455.19;;;11.48;86.40
65329;BME280;51941;52.210;5.158;2024-02-15T07:36:18;101447.47;;;11.46;86.38
65329;BME280;51941;52.210;5.158;2024-02-15T07:38:47;101444.75;;;11.46;86.28
65329;BME280;51941;52.210;5.158;2024-02-15T07:41:14;101440.88;;;11.44;86.51
65329;BME280;51941;52.210;5.158;2024-02-15T07:43:40;101455.50;;;11.43;86.63
65329;BME280;51941;52.210;5.158;2024-02-15T07:46:11;101444.75;;;11.46;86.43
65329;BME280;51941;52.210;5.158;2024-02-15T07:48:38;101433.91;;;11.43;86.57
65329;BME280;51941;52.210;5.158;2024-02-15T07:51:09;101418.06;;;11.41;86.67
65329;BME280;51941;52.210;5.158;2024-02-15T07:53:38;101408.84;;;11.42;86.59
65329;BME280;51941;52.210;5.158;2024-02-15T07:56:06;101432.66;;;11.37;86.84
65329;BME280;51941;52.210;5.158;2024-02-15T07:58:32;101427.63;;;11.35;86.68
65329;BME280;51941;52.210;5.158;2024-02-15T08:00:59;101425.75;;;11.39;86.47
65329;BME280;51941;52.210;5.158;2024-02-15T08:03:26;101429.91;;;11.33;86.85
65329;BME280;51941;52.210;5.158;2024-02-15T08:05:55;101432.25;;;11.35;86.95
65329;BME280;51941;52.210;5.158;2024-02-15T08:08:21;101414.94;;;11.36;86.83
65329;BME280;51941;52.210;5.158;2024-02-15T08:10:50;101422.53;;;11.30;87.09
65329;BME280;51941;52.210;5.158;2024-02-15T08:13:17;101423.31;;;11.31;87.05
65329;BME280;51941;52.210;5.158;2024-02-15T08:15:48;101417.91;;;11.31;87.16
65329;BME280;51941;52.210;5.158;2024-02-15T08:18:17;101422.19;;;11.32;87.00
65329;BME280;51941;52.210;5.158;2024-02-15T08:20:45;101420.25;;;11.32;86.94
65329;BME280;51941;52.210;5.158;2024-02-15T08:23:12;101414.13;;;11.35;86.87
65329;BME280;51941;52.210;5.158;2024-02-15T08:25:39;101420.00;;;11.41;86.60
65329;BME280;51941;52.210;5.158;2024-02-15T08:28:08;101412.22;;;11.36;86.90
65329;BME280;51941;52.210;5.158;2024-02-15T08:30:34;101409.22;;;11.41;86.75
65329;BME280;51941;52.210;5.158;2024-02-15T08:33:03;101405.38;;;11.42;86.98
65329;BME280;51941;52.210;5.158;2024-02-15T08:35:29;101397.13;;;11.31;87.34
65329;BME280;51941;52.210;5.158;2024-02-15T08:37:57;101397.38;;;11.22;87.76
65329;BME280;51941;52.210;5.158;2024-02-15T08:40:24;101382.84;;;11.31;87.71
65329;BME280;51941;52.210;5.158;2024-02-15T08:42:51;101388.31;;;11.34;87.67
65329;BME280;51941;52.210;5.158;2024-02-15T08:45:19;101375.38;;;11.43;87.21
65329;BME280;51941;52.210;5.158;2024-02-15T08:47:46;101389.28;;;11.45;87.26
65329;BME280;51941;52.210;5.158;2024-02-15T08:50:15;101387.00;;;11.47;87.23
65329;BME280;51941;52.210;5.158;2024-02-15T08:52:42;101396.63;;;11.48;87.17
65329;BME280;51941;52.210;5.158;2024-02-15T08:55:10;101390.13;;;11.53;87.03
65329;BME280;51941;52.210;5.158;2024-02-15T08:57:39;101387.50;;;11.57;86.89
65329;BME280;51941;52.210;5.158;2024-02-15T09:00:07;101386.03;;;11.63;86.50
65329;BME280;51941;52.210;5.158;2024-02-15T09:02:40;101387.59;;;11.64;86.50
65329;BME280;51941;52.210;5.158;2024-02-15T09:05:07;101384.97;;;11.67;86.29
65329;BME280;51941;52.210;5.158;2024-02-15T09:07:33;101378.81;;;11.71;86.36
65329;BME280;51941;52.210;5.158;2024-02-15T09:10:01;101381.59;;;11.74;86.09
65329;BME280;51941;52.210;5.158;2024-02-15T09:12:28;101390.66;;;11.62;86.43
65329;BME280;51941;52.210;5.158;2024-02-15T09:14:56;101381.06;;;11.65;86.52
65329;BME280;51941;52.210;5.158;2024-02-15T09:17:23;101389.59;;;11.67;86.45
65329;BME280;51941;52.210;5.158;2024-02-15T09:19:53;101390.38;;;11.67;86.34
65329;BME280;51941;52.210;5.158;2024-02-15T09:22:20;101392.38;;;11.74;86.19
65329;BME280;51941;52.210;5.158;2024-02-15T09:24:46;101399.28;;;11.72;86.26
65329;BME280;51941;52.210;5.158;2024-02-15T09:27:13;101394.31;;;11.74;86.40
65329;BME280;51941;52.210;5.158;2024-02-15T09:29:40;101397.13;;;11.81;86.23
65329;BME280;51941;52.210;5.158;2024-02-15T09:32:09;101395.25;;;11.85;86.22
65329;BME280;51941;52.210;5.158;2024-02-15T09:34:35;101392.53;;;11.85;86.23
65329;BME280;51941;52.210;5.158;2024-02-15T09:37:04;101399.59;;;11.93;86.04
65329;BME280;51941;52.210;5.158;2024-02-15T09:39:30;101401.13;;;11.94;85.59
65329;BME280;51941;52.210;5.158;2024-02-15T09:41:57;101399.63;;;11.97;85.65
65329;BME280;51941;52.210;5.158;2024-02-15T09:44:24;101401.19;;;11.98;85.36
65329;BME280;51941;52.210;5.158;2024-02-15T09:47:02;101405.53;;;12.06;85.60
65329;BME280;51941;52.210;5.158;2024-02-15T09:49:30;101406.34;;;12.06;85.79
65329;BME280;51941;52.210;5.158;2024-02-15T09:52:04;101400.13;;;12.06;85.28
65329;BME280;51941;52.210;5.158;2024-02-15T09:54:32;101403.72;;;12.14;85.35
65329;BME280;51941;52.210;5.158;2024-02-15T09:57:01;101398.22;;;12.06;85.01
65329;BME280;51941;52.210;5.158;2024-02-15T09:59:29;101397.81;;;12.04;84.79
65329;BME280;51941;52.210;5.158;2024-02-15T10:01:59;101393.19;;;12.05;84.89
65329;BME280;51941;52.210;5.158;2024-02-15T10:04:25;101398.72;;;12.16;85.35
65329;BME280;51941;52.210;5.158;2024-02-15T10:06:52;101391.66;;;12.07;85.03
65329;BME280;51941;52.210;5.158;2024-02-15T10:09:27;101394.28;;;12.00;84.81
65329;BME280;51941;52.210;5.158;2024-02-15T10:11:55;101394.53;;;12.18;85.16
65329;BME280;51941;52.210;5.158;2024-02-15T10:14:23;101392.91;;;12.14;84.53
65329;BME280;51941;52.210;5.158;2024-02-15T10:16:50;101397.25;;;12.22;84.70
65329;BME280;51941;52.210;5.158;2024-02-15T10:19:18;101390.34;;;12.24;84.58
65329;BME280;51941;52.210;5.158;2024-02-15T10:21:46;101401.47;;;12.19;84.50
65329;BME280;51941;52.210;5.158;2024-02-15T10:24:13;101396.56;;;12.28;84.61
65329;BME280;51941;52.210;5.158;2024-02-15T10:26:41;101397.66;;;12.24;83.86
65329;BME280;51941;52.210;5.158;2024-02-15T10:29:09;101398.97;;;12.34;84.22
65329;BME280;51941;52.210;5.158;2024-02-15T10:31:36;101400.53;;;12.35;83.92
65329;BME280;51941;52.210;5.158;2024-02-15T10:34:05;101398.34;;;12.44;84.25
65329;BME280;51941;52.210;5.158;2024-02-15T10:36:33;101390.59;;;12.42;83.53
65329;BME280;51941;52.210;5.158;2024-02-15T10:39:13;101395.38;;;12.56;84.35
65329;BME280;51941;52.210;5.158;2024-02-15T10:41:45;101387.28;;;12.56;83.39
65329;BME280;51941;52.210;5.158;2024-02-15T10:44:17;101390.47;;;12.65;84.08
65329;BME280;51941;52.210;5.158;2024-02-15T10:46:48;101381.97;;;12.67;83.84
65329;BME280;51941;52.210;5.158;2024-02-15T10:49:18;101383.44;;;12.61;83.59
65329;BME280;51941;52.210;5.158;2024-02-15T10:51:49;101375.75;;;12.63;83.04
65329;BME280;51941;52.210;5.158;2024-02-15T10:54:29;101387.72;;;12.62;83.36
65329;BME280;51941;52.210;5.158;2024-02-15T10:57:03;101384.72;;;12.71;83.50
65329;BME280;51941;52.210;5.158;2024-02-15T10:59:32;101386.25;;;12.68;83.51
65329;BME280;51941;52.210;5.158;2024-02-15T11:04:50;101387.75;;;12.65;83.57
65329;BME280;51941;52.210;5.158;2024-02-15T11:07:20;101385.06;;;12.69;83.14
65329;BME280;51941;52.210;5.158;2024-02-15T11:09:47;101386.25;;;12.68;82.85
65329;BME280;51941;52.210;5.158;2024-02-15T11:12:15;101388.22;;;12.75;82.91
65329;BME280;51941;52.210;5.158;2024-02-15T11:14:44;101388.63;;;12.77;83.08
65329;BME280;51941;52.210;5.158;2024-02-15T11:17:11;101376.91;;;12.62;83.18
65329;BME280;51941;52.210;5.158;2024-02-15T11:19:43;101376.28;;;12.76;83.23
65329;BME280;51941;52.210;5.158;2024-02-15T11:22:14;101380.22;;;12.85;83.22
65329;BME280;51941;52.210;5.158;2024-02-15T11:24:48;101374.47;;;12.91;82.96
65329;BME280;51941;52.210;5.158;2024-02-15T11:27:27;101372.56;;;12.91;82.77
65329;BME280;51941;52.210;5.158;2024-02-15T11:29:55;101372.56;;;12.95;82.79
65329;BME280;51941;52.210;5.158;2024-02-15T11:32:41;101362.59;;;12.99;82.42
65329;BME280;51941;52.210;5.158;2024-02-15T11:35:11;101362.66;;;13.10;82.40
65329;BME280;51941;52.210;5.158;2024-02-15T11:37:58;101362.59;;;13.02;82.51
65329;BME280;51941;52.210;5.158;2024-02-15T11:40:29;101350.69;;;13.07;82.06
65329;BME280;51941;52.210;5.158;2024-02-15T11:46:22;101349.63;;;13.19;82.31
65329;BME280;51941;52.210;5.158;2024-02-15T11:48:52;101344.31;;;13.33;82.38
65329;BME280;51941;52.210;5.158;2024-02-15T11:51:29;101338.16;;;13.40;81.24
65329;BME280;51941;52.210;5.158;2024-02-15T11:54:02;101336.66;;;13.50;81.52
65329;BME280;51941;52.210;5.158;2024-02-15T11:56:33;101340.84;;;13.40;81.42
65329;BME280;51941;52.210;5.158;2024-02-15T11:59:16;101337.53;;;13.61;81.81
65329;BME280;51941;52.210;5.158;2024-02-15T12:01:56;101330.91;;;13.55;81.37
65329;BME280;51941;52.210;5.158;2024-02-15T12:04:40;101332.16;;;13.64;81.55
65329;BME280;51941;52.210;5.158;2024-02-15T12:07:24;101329.06;;;13.66;81.07
65329;BME280;51941;52.210;5.158;2024-02-15T12:10:16;101325.66;;;13.80;81.38
65329;BME280;51941;52.210;5.158;2024-02-15T12:13:00;101317.91;;;13.78;80.76
65329;BME280;51941;52.210;5.158;2024-02-15T12:15:56;101295.91;;;13.91;80.59
65329;BME280;51941;52.210;5.158;2024-02-15T12:18:40;101303.66;;;13.92;81.15
65329;BME280;51941;52.210;5.158;2024-02-15T12:21:09;101298.66;;;13.98;80.91
65329;BME280;51941;52.210;5.158;2024-02-15T12:23:37;101302.88;;;13.88;81.21
65329;BME280;51941;52.210;5.158;2024-02-15T12:26:06;101309.09;;;14.03;80.73
65329;BME280;51941;52.210;5.158;2024-02-15T12:28:34;101309.53;;;14.12;81.02
65329;BME280;51941;52.210;5.158;2024-02-15T12:31:02;101298.69;;;14.12;80.88
65329;BME280;51941;52.210;5.158;2024-02-15T12:33:33;101285.97;;;14.23;80.03
65329;BME280;51941;52.210;5.158;2024-02-15T12:36:08;101294.88;;;14.38;80.44
65329;BME280;51941;52.210;5.158;2024-02-15T12:38:35;101280.97;;;14.43;80.17
65329;BME280;51941;52.210;5.158;2024-02-15T12:41:03;101272.84;;;14.51;80.40
65329;BME280;51941;52.210;5.158;2024-02-15T12:43:31;101271.69;;;14.62;79.95
65329;BME280;51941;52.210;5.158;2024-02-15T12:45:57;101275.94;;;14.63;78.89
65329;BME280;51941;52.210;5.158;2024-02-15T12:48:24;101275.59;;;14.76;79.77
65329;BME280;51941;52.210;5.158;2024-02-15T12:50:52;101274.03;;;14.75;78.90
65329;BME280;51941;52.210;5.158;2024-02-15T12:53:24;101268.97;;;14.59;79.90
65329;BME280;51941;52.210;5.158;2024-02-15T12:55:54;101268.19;;;14.62;78.99
65329;BME280;51941;52.210;5.158;2024-02-15T12:58:21;101277.50;;;14.61;79.25
65329;BME280;51941;52.210;5.158;2024-02-15T13:00:50;101265.13;;;14.81;79.13
65329;BME280;51941;52.210;5.158;2024-02-15T13:03:21;101255.06;;;14.75;78.83
65329;BME280;51941;52.210;5.158;2024-02-15T13:05:47;101258.13;;;14.70;78.60